createdAt,value
2018-09-15T00:00:39.411Z,17.55
2018-09-15T00:03:08.271Z,17.57
2018-09-15T00:05:36.894Z,17.52
2018-09-15T00:08:05.492Z,17.49
2018-09-15T00:10:34.680Z,17.47
2018-09-15T00:13:03.295Z,17.53
2018-09-15T00:15:32.402Z,17.57
2018-09-15T00:18:02.776Z,17.51
2018-09-15T00:20:31.935Z,17.42
2018-09-15T00:23:00.391Z,17.38
2018-09-15T00:25:28.746Z,17.26
2018-09-15T00:27:57.146Z,17.28
2018-09-15T00:30:25.573Z,17.29
2018-09-15T00:32:54.088Z,17.29
2018-09-15T00:35:22.577Z,17.23
2018-09-15T00:37:51.255Z,17.22
2018-09-15T00:40:19.846Z,17.14
2018-09-15T00:42:48.506Z,17.12
2018-09-15T00:45:17.075Z,17.08
2018-09-15T00:47:45.608Z,17.05
2018-09-15T00:50:14.236Z,17.04
2018-09-15T00:52:42.791Z,16.95
2018-09-15T00:55:11.821Z,16.92
2018-09-15T00:57:40.415Z,16.90
2018-09-15T01:00:10.589Z,16.91
2018-09-15T01:02:39.317Z,16.88
2018-09-15T01:05:08.262Z,16.90
2018-09-15T01:07:36.993Z,16.86
2018-09-15T01:10:06.345Z,16.80
2018-09-15T01:12:41.596Z,16.84
2018-09-15T01:15:10.347Z,16.79
2018-09-15T01:17:38.828Z,16.72
2018-09-15T01:20:07.545Z,16.74
2018-09-15T01:22:36.249Z,16.62
2018-09-15T01:25:04.794Z,16.62
2018-09-15T01:27:33.239Z,16.66
2018-09-15T01:30:01.897Z,16.58
2018-09-15T01:32:30.428Z,16.53
2018-09-15T01:34:59.143Z,16.53
2018-09-15T01:37:27.708Z,16.50
2018-09-15T01:39:56.204Z,16.50
2018-09-15T01:42:25.565Z,16.44
2018-09-15T01:44:54.164Z,16.42
2018-09-15T01:47:22.603Z,16.45
2018-09-15T01:49:51.103Z,16.41
2018-09-15T01:52:20.251Z,16.35
2018-09-15T01:54:48.766Z,16.35
2018-09-15T01:57:17.344Z,16.36
2018-09-15T01:59:46.269Z,16.37
2018-09-15T02:02:14.659Z,16.31
2018-09-15T02:04:43.453Z,16.40
2018-09-15T02:07:11.982Z,16.32
2018-09-15T02:09:40.901Z,16.30
2018-09-15T02:12:09.515Z,16.26
2018-09-15T02:14:38.482Z,16.22
2018-09-15T02:17:07.108Z,16.23
2018-09-15T02:19:35.589Z,16.21
2018-09-15T02:22:04.155Z,16.17
2018-09-15T02:24:32.639Z,16.08
2018-09-15T02:27:01.218Z,16.11
2018-09-15T02:29:29.856Z,16.11
2018-09-15T02:31:58.363Z,16.15
2018-09-15T02:34:26.942Z,16.17
2018-09-15T02:36:55.470Z,16.14
2018-09-15T02:39:23.867Z,16.14
2018-09-15T02:41:52.323Z,16.15
2018-09-15T02:44:20.738Z,15.98
2018-09-15T02:46:49.246Z,16.00
2018-09-15T02:49:17.682Z,16.05
2018-09-15T02:51:46.103Z,16.07
2018-09-15T02:54:14.723Z,16.11
2018-09-15T02:56:44.107Z,16.01
2018-09-15T02:59:12.688Z,16.10
2018-09-15T03:01:41.303Z,16.08
2018-09-15T03:04:09.873Z,15.98
2018-09-15T03:06:39.194Z,15.98
2018-09-15T03:09:10.823Z,15.98
2018-09-15T03:11:39.223Z,15.93
2018-09-15T03:14:07.727Z,15.85
2018-09-15T03:16:37.132Z,15.86
2018-09-15T03:19:05.629Z,15.91
2018-09-15T03:21:33.982Z,15.83
2018-09-15T03:24:02.448Z,15.86
2018-09-15T03:26:32.001Z,15.87
2018-09-15T03:29:00.499Z,15.83
2018-09-15T03:31:29.160Z,15.78
2018-09-15T03:33:57.529Z,15.74
2018-09-15T03:36:26.103Z,15.75
2018-09-15T03:38:54.508Z,15.76
2018-09-15T03:41:22.946Z,15.70
2018-09-15T03:43:51.377Z,15.69
2018-09-15T03:46:20.009Z,15.69
2018-09-15T03:48:48.443Z,15.70
2018-09-15T03:51:16.913Z,15.64
2018-09-15T03:53:45.412Z,15.62
2018-09-15T03:56:14.128Z,15.63
2018-09-15T03:58:42.572Z,15.69
2018-09-15T04:01:11.064Z,15.58
2018-09-15T04:03:39.507Z,15.59
2018-09-15T04:06:07.958Z,15.54
2018-09-15T04:08:36.515Z,15.51
2018-09-15T04:11:04.884Z,15.45
2018-09-15T04:13:33.362Z,15.45
2018-09-15T04:16:01.881Z,15.43
2018-09-15T04:18:30.240Z,15.47
2018-09-15T04:20:58.822Z,15.42
2018-09-15T04:23:27.165Z,15.40
2018-09-15T04:25:55.663Z,15.35
2018-09-15T04:28:24.205Z,15.34
2018-09-15T04:30:52.634Z,15.29
2018-09-15T04:33:20.993Z,15.30
2018-09-15T04:35:49.375Z,15.26
2018-09-15T04:38:17.781Z,15.25
2018-09-15T04:40:46.206Z,15.34
2018-09-15T04:43:14.656Z,15.26
2018-09-15T04:45:43.111Z,15.28
2018-09-15T04:48:11.740Z,15.29
2018-09-15T04:50:40.212Z,15.29
2018-09-15T04:53:09.601Z,15.25
2018-09-15T04:55:37.958Z,15.19
2018-09-15T04:58:06.388Z,15.19
2018-09-15T05:00:35.109Z,15.21
2018-09-15T05:03:03.536Z,15.20
2018-09-15T05:05:31.978Z,15.18
2018-09-15T05:08:00.425Z,15.13
2018-09-15T05:10:29.109Z,15.09
2018-09-15T05:12:57.783Z,15.08
2018-09-15T05:15:26.195Z,15.13
2018-09-15T05:17:54.539Z,15.16
2018-09-15T05:20:23.067Z,15.10
2018-09-15T05:22:51.479Z,15.11
2018-09-15T05:25:20.064Z,15.21
2018-09-15T05:27:49.092Z,15.13
2018-09-15T05:30:17.658Z,15.07
2018-09-15T05:32:46.125Z,15.12
2018-09-15T05:35:14.660Z,15.09
2018-09-15T05:37:43.157Z,15.07
2018-09-15T05:40:12.413Z,15.11
2018-09-15T05:42:40.807Z,15.15
2018-09-15T05:45:09.240Z,15.07
2018-09-15T05:47:37.818Z,15.10
2018-09-15T05:50:06.612Z,15.04
2018-09-15T05:52:35.023Z,14.99
2018-09-15T05:55:03.415Z,15.08
2018-09-15T05:57:31.853Z,15.01
2018-09-15T06:00:00.270Z,15.03
2018-09-15T06:02:28.759Z,15.01
2018-09-15T06:04:57.221Z,15.02
2018-09-15T06:07:25.754Z,15.04
2018-09-15T06:09:54.427Z,15.05
2018-09-15T06:12:23.028Z,14.99
2018-09-15T06:14:51.444Z,15.00
2018-09-15T06:17:19.946Z,15.00
2018-09-15T06:19:48.446Z,15.03
2018-09-15T06:22:17.183Z,15.08
2018-09-15T06:24:45.716Z,15.11
2018-09-15T06:27:14.774Z,15.01
2018-09-15T06:29:44.332Z,15.08
2018-09-15T06:32:13.115Z,15.09
2018-09-15T06:34:41.802Z,15.04
2018-09-15T06:37:10.857Z,15.11
2018-09-15T06:39:39.346Z,15.09
2018-09-15T06:42:07.846Z,15.11
2018-09-15T06:44:36.379Z,14.98
2018-09-15T06:47:04.938Z,15.03
2018-09-15T06:49:40.754Z,15.02
2018-09-15T06:55:57.624Z,15.00
2018-09-15T06:58:53.647Z,15.08
2018-09-15T07:01:47.321Z,15.13
2018-09-15T07:16:40.470Z,15.38
2018-09-15T07:29:05.278Z,15.57
2018-09-15T07:31:39.913Z,15.61
2018-09-15T07:34:10.838Z,15.59
2018-09-15T07:36:41.620Z,15.53
2018-09-15T07:42:52.581Z,15.66
2018-09-15T07:49:09.412Z,15.81
2018-09-15T07:53:56.447Z,15.82
2018-09-15T07:56:27.340Z,15.95
2018-09-15T07:58:57.454Z,16.03
2018-09-15T08:01:26.150Z,16.14
2018-09-15T08:03:55.967Z,16.21
2018-09-15T08:06:24.442Z,16.25
2018-09-15T08:08:52.983Z,16.42
2018-09-15T08:11:21.527Z,16.56
2018-09-15T08:13:50.493Z,16.70
2018-09-15T08:16:24.829Z,16.79
2018-09-15T08:19:10.884Z,16.83
2018-09-15T08:21:47.413Z,16.86
2018-09-15T08:27:09.583Z,16.99
2018-09-15T08:29:52.307Z,17.43
2018-09-15T08:32:30.169Z,17.49
2018-09-15T08:35:11.859Z,17.51
2018-09-15T08:37:40.506Z,17.51
2018-09-15T08:40:13.076Z,17.56
2018-09-15T08:42:43.565Z,17.60
2018-09-15T08:46:41.588Z,17.64
2018-09-15T08:49:11.551Z,17.58
2018-09-15T08:51:40.927Z,17.62
2018-09-15T08:54:17.986Z,17.76
2018-09-15T08:56:47.795Z,18.11
2018-09-15T08:59:16.299Z,18.21
2018-09-15T09:01:45.100Z,18.29
2018-09-15T09:04:17.533Z,18.30
2018-09-15T09:06:54.655Z,18.31
2018-09-15T09:09:30.969Z,18.25
2018-09-15T09:12:07.498Z,18.31
2018-09-15T09:17:29.226Z,18.07
2018-09-15T09:20:08.984Z,18.01
2018-09-15T09:22:52.454Z,17.91
2018-09-15T09:25:36.979Z,17.86
2018-09-15T09:28:22.101Z,17.92
2018-09-15T09:30:57.497Z,17.83
2018-09-15T09:33:46.380Z,17.85
2018-09-15T09:36:32.016Z,17.80
2018-09-15T09:39:21.216Z,17.98
2018-09-15T09:42:02.887Z,17.99
2018-09-15T09:44:44.881Z,18.09
2018-09-15T09:47:32.773Z,18.19
2018-09-15T09:50:16.886Z,18.21
2018-09-15T09:52:48.640Z,18.11
2018-09-15T09:55:54.843Z,18.08
2018-09-15T10:12:47.654Z,18.21
2018-09-15T10:19:06.506Z,18.29
2018-09-15T10:26:10.585Z,18.60
2018-09-15T10:29:10.709Z,18.77
2018-09-15T10:32:04.235Z,18.90
2018-09-15T10:38:07.082Z,19.12
2018-09-15T11:07:49.028Z,20.23
2018-09-15T11:16:26.373Z,19.51
2018-09-15T11:19:20.589Z,19.43
2018-09-15T11:22:18.711Z,19.30
2018-09-15T11:28:06.730Z,19.64
2018-09-15T11:30:58.104Z,19.86
2018-09-15T11:33:56.113Z,19.76
2018-09-15T11:36:49.867Z,19.64
2018-09-15T11:39:40.193Z,19.60
2018-09-15T11:45:52.356Z,20.16
2018-09-15T11:49:15.890Z,20.19
2018-09-15T11:52:12.046Z,20.00
2018-09-15T11:55:00.164Z,19.53
2018-09-15T11:57:46.448Z,19.26
2018-09-15T12:01:37.208Z,18.87
2018-09-15T12:04:14.873Z,18.76
2018-09-15T12:41:55.076Z,17.47
2018-09-15T12:47:34.858Z,17.46
2018-09-15T12:50:07.457Z,17.42
2018-09-15T12:55:27.171Z,17.47
2018-09-15T12:57:56.581Z,17.46
2018-09-15T13:00:26.396Z,17.49
2018-09-15T13:02:57.268Z,17.50
2018-09-15T13:05:25.917Z,17.51
2018-09-15T13:08:00.878Z,17.56
2018-09-15T13:10:30.399Z,17.58
2018-09-15T13:13:03.075Z,17.57
2018-09-15T13:15:34.075Z,17.45
2018-09-15T13:18:02.895Z,17.43
2018-09-15T13:20:34.027Z,17.44
2018-09-15T13:23:05.867Z,17.34
2018-09-15T13:25:36.951Z,17.30
2018-09-15T13:28:15.590Z,17.34
2018-09-15T13:30:46.090Z,17.32
2018-09-15T13:33:16.615Z,17.37
2018-09-15T13:35:47.595Z,17.50
2018-09-15T13:38:21.027Z,17.53
2018-09-15T13:40:51.840Z,17.57
2018-09-15T13:43:27.192Z,17.63
2018-09-15T13:45:59.196Z,17.61
2018-09-15T13:48:34.166Z,17.68
2018-09-15T13:51:09.645Z,17.79
2018-09-15T13:53:40.575Z,17.83
2018-09-15T13:56:15.220Z,17.81
2018-09-15T13:58:46.049Z,17.84
2018-09-15T14:04:12.247Z,17.92
2018-09-15T14:12:53.926Z,18.00
2018-09-15T14:15:43.819Z,18.07
2018-09-15T14:28:01.896Z,18.03
2018-09-15T14:53:29.233Z,18.27
2018-09-15T14:56:27.126Z,18.34
2018-09-15T14:59:34.998Z,18.45
2018-09-15T15:05:41.500Z,18.57
2018-09-15T15:08:44.735Z,18.61
2018-09-15T15:11:42.666Z,18.66
2018-09-15T16:33:32.030Z,18.69
2018-09-15T16:36:18.296Z,18.64
2018-09-15T16:42:05.267Z,18.64
2018-09-15T16:44:57.369Z,18.63
2018-09-15T17:11:26.431Z,18.38
2018-09-15T17:17:08.257Z,18.26
2018-09-15T17:19:49.033Z,18.17
2018-09-15T17:28:10.156Z,18.16
2018-09-15T17:59:05.868Z,17.65
2018-09-15T18:02:07.764Z,17.59
2018-09-15T18:04:55.494Z,17.59
2018-09-15T18:07:38.579Z,17.53
2018-09-15T18:10:08.665Z,17.47
2018-09-15T18:12:54.727Z,17.47
2018-09-15T18:15:33.375Z,17.47
2018-09-15T18:18:06.640Z,17.45
2018-09-15T18:34:23.782Z,17.48
2018-09-15T18:39:35.545Z,17.40
2018-09-15T18:42:04.963Z,17.38
2018-09-15T18:44:36.690Z,17.38
2018-09-15T18:47:05.445Z,17.35
2018-09-15T18:49:35.121Z,17.27
2018-09-15T18:52:03.911Z,17.33
2018-09-15T18:54:32.789Z,17.35
2018-09-15T18:57:02.238Z,17.31
2018-09-15T18:59:32.943Z,17.27
2018-09-15T19:02:03.349Z,17.25
2018-09-15T19:04:33.072Z,17.27
2018-09-15T19:07:05.442Z,17.16
2018-09-15T19:09:52.989Z,17.13
2018-09-15T19:19:32.074Z,17.04
2018-09-15T19:22:15.699Z,17.00
2018-09-15T19:25:14.760Z,17.00
2018-09-15T19:30:57.442Z,16.95
2018-09-15T19:33:42.420Z,16.94
2018-09-15T19:36:38.638Z,16.95
2018-09-15T19:39:32.816Z,17.01
2018-09-15T19:42:22.341Z,16.98
2018-09-15T19:45:20.389Z,17.02
2018-09-15T19:48:16.609Z,17.05
2018-09-15T19:51:22.144Z,17.06
2018-09-15T19:58:16.373Z,17.06
2018-09-15T20:04:38.198Z,16.93
2018-09-15T20:07:26.918Z,16.90
2018-09-15T20:13:16.823Z,16.85
2018-09-15T20:18:39.231Z,16.75
2018-09-15T20:21:24.067Z,16.72
2018-09-15T20:24:22.332Z,16.65
2018-09-15T20:27:21.195Z,16.63
2018-09-15T20:57:35.437Z,16.42
2018-09-15T21:10:05.807Z,16.29
2018-09-15T21:12:54.582Z,16.28
2018-09-15T21:18:42.930Z,16.17
2018-09-15T21:24:25.529Z,16.17
2018-09-15T21:27:21.983Z,16.14
2018-09-15T21:33:26.644Z,16.06
2018-09-15T21:36:11.665Z,15.99
2018-09-15T21:39:04.642Z,15.95
2018-09-15T21:48:04.049Z,16.00
2018-09-15T21:54:11.939Z,15.94
2018-09-15T21:57:01.236Z,15.90
2018-09-15T22:45:16.505Z,15.83
2018-09-15T22:48:07.093Z,15.82
2018-09-15T22:50:48.501Z,15.85
2018-09-15T22:53:38.814Z,15.81
2018-09-15T22:56:26.231Z,15.82
2018-09-15T22:59:09.090Z,15.84
2018-09-15T23:02:00.936Z,15.85
2018-09-15T23:04:43.732Z,15.85
2018-09-15T23:07:34.403Z,15.80
2018-09-15T23:13:39.959Z,15.70
2018-09-15T23:16:41.614Z,15.66
2018-09-15T23:22:25.401Z,15.66
2018-09-15T23:25:16.871Z,15.67
2018-09-15T23:28:12.887Z,15.69
2018-09-15T23:33:58.591Z,15.71
2018-09-15T23:36:49.236Z,15.71
2018-09-15T23:39:42.329Z,15.66
2018-09-15T23:42:27.250Z,15.62
2018-09-15T23:45:21.783Z,15.60
2018-09-15T23:48:12.634Z,15.56
2018-09-15T23:50:57.589Z,15.53
2018-09-15T23:53:40.344Z,15.51
2018-09-15T23:56:29.474Z,15.50
